sensor_id;sensor_type;location;lat;lon;timestamp;temperature;humidity
26326;DHT22;14032;52.510;7.342;2022-12-18T00:01:33;-4.50;99.90
26326;DHT22;14032;52.510;7.342;2022-12-18T00:04:00;-4.50;99.90
26326;DHT22;14032;52.510;7.342;2022-12-18T00:06:27;-4.60;99.90
26326;DHT22;14032;52.510;7.342;2022-12-18T00:08:55;-4.60;99.90
26326;DHT22;14032;52.510;7.342;2022-12-18T00:11:23;-4.70;99.90
26326;DHT22;14032;52.510;7.342;2022-12-18T00:13:50;-4.70;99.90
26326;DHT22;14032;52.510;7.342;2022-12-18T00:16:21;-4.70;99.90
26326;DHT22;14032;52.510;7.342;2022-12-18T00:18:53;-4.70;99.90
26326;DHT22;14032;52.510;7.342;2022-12-18T00:21:20;-4.60;99.90
26326;DHT22;14032;52.510;7.342;2022-12-18T00:23:46;-4.70;99.90
26326;DHT22;14032;52.510;7.342;2022-12-18T00:26:18;-4.70;99.90
26326;DHT22;14032;52.510;7.342;2022-12-18T00:28:45;-4.80;99.90
26326;DHT22;14032;52.510;7.342;2022-12-18T00:31:14;-4.80;99.90
26326;DHT22;14032;52.510;7.342;2022-12-18T00:33:40;-4.80;99.90
26326;DHT22;14032;52.510;7.342;2022-12-18T00:36:13;-4.90;99.90
26326;DHT22;14032;52.510;7.342;2022-12-18T00:38:39;-4.90;99.90
26326;DHT22;14032;52.510;7.342;2022-12-18T00:41:06;-4.90;99.90
26326;DHT22;14032;52.510;7.342;2022-12-18T00:43:32;-4.90;99.90
26326;DHT22;14032;52.510;7.342;2022-12-18T00:45:58;-4.90;99.90
26326;DHT22;14032;52.510;7.342;2022-12-18T00:48:23;-4.90;99.90
26326;DHT22;14032;52.510;7.342;2022-12-18T00:50:50;-4.90;99.90
26326;DHT22;14032;52.510;7.342;2022-12-18T00:53:16;-5.00;99.90
26326;DHT22;14032;52.510;7.342;2022-12-18T00:55:42;-5.00;99.90
26326;DHT22;14032;52.510;7.342;2022-12-18T00:58:09;-5.00;99.90
26326;DHT22;14032;52.510;7.342;2022-12-18T01:00:35;-5.00;99.90
26326;DHT22;14032;52.510;7.342;2022-12-18T01:03:00;-5.00;99.90
26326;DHT22;14032;52.510;7.342;2022-12-18T01:05:27;-5.10;99.90
26326;DHT22;14032;52.510;7.342;2022-12-18T01:07:52;-5.10;99.90
26326;DHT22;14032;52.510;7.342;2022-12-18T01:10:18;-5.10;99.90
26326;DHT22;14032;52.510;7.342;2022-12-18T01:12:44;-5.20;99.90
26326;DHT22;14032;52.510;7.342;2022-12-18T01:15:10;-5.20;99.90
26326;DHT22;14032;52.510;7.342;2022-12-18T01:17:37;-5.20;99.90
26326;DHT22;14032;52.510;7.342;2022-12-18T01:20:03;-5.20;99.90
26326;DHT22;14032;52.510;7.342;2022-12-18T01:22:28;-5.20;99.90
26326;DHT22;14032;52.510;7.342;2022-12-18T01:24:54;-5.30;99.90
26326;DHT22;14032;52.510;7.342;2022-12-18T01:27:19;-5.30;99.90
26326;DHT22;14032;52.510;7.342;2022-12-18T01:29:45;-5.30;99.90
26326;DHT22;14032;52.510;7.342;2022-12-18T01:32:11;-5.30;99.90
26326;DHT22;14032;52.510;7.342;2022-12-18T01:34:37;-5.30;99.90
26326;DHT22;14032;52.510;7.342;2022-12-18T01:37:05;-5.30;99.90
26326;DHT22;14032;52.510;7.342;2022-12-18T01:39:32;-5.30;99.90
26326;DHT22;14032;52.510;7.342;2022-12-18T01:41:59;-5.40;99.90
26326;DHT22;14032;52.510;7.342;2022-12-18T01:47:39;-5.40;99.90
26326;DHT22;14032;52.510;7.342;2022-12-18T01:52:41;-5.40;99.90
26326;DHT22;14032;52.510;7.342;2022-12-18T01:55:08;-5.50;99.90
26326;DHT22;14032;52.510;7.342;2022-12-18T01:57:34;-5.50;99.90
26326;DHT22;14032;52.510;7.342;2022-12-18T02:00:05;-5.50;99.90
26326;DHT22;14032;52.510;7.342;2022-12-18T02:02:31;-5.60;99.90
26326;DHT22;14032;52.510;7.342;2022-12-18T02:04:57;-5.50;99.90
26326;DHT22;14032;52.510;7.342;2022-12-18T02:10:47;-5.60;99.90
26326;DHT22;14032;52.510;7.342;2022-12-18T02:16:13;-5.60;99.90
26326;DHT22;14032;52.510;7.342;2022-12-18T02:18:50;-5.60;99.90
26326;DHT22;14032;52.510;7.342;2022-12-18T02:21:36;-5.60;99.90
26326;DHT22;14032;52.510;7.342;2022-12-18T02:24:29;-5.60;99.90
26326;DHT22;14032;52.510;7.342;2022-12-18T02:27:00;-5.60;99.90
26326;DHT22;14032;52.510;7.342;2022-12-18T02:29:46;-5.60;99.90
26326;DHT22;14032;52.510;7.342;2022-12-18T02:32:25;-5.60;99.90
26326;DHT22;14032;52.510;7.342;2022-12-18T02:34:53;-5.60;99.90
26326;DHT22;14032;52.510;7.342;2022-12-18T02:37:21;-5.60;99.90
26326;DHT22;14032;52.510;7.342;2022-12-18T02:39:49;-5.60;99.90
26326;DHT22;14032;52.510;7.342;2022-12-18T02:42:17;-5.60;99.90
26326;DHT22;14032;52.510;7.342;2022-12-18T02:44:45;-5.70;99.90
26326;DHT22;14032;52.510;7.342;2022-12-18T02:47:13;-5.60;99.90
26326;DHT22;14032;52.510;7.342;2022-12-18T03:00:39;-5.60;99.90
26326;DHT22;14032;52.510;7.342;2022-12-18T03:03:11;-5.60;99.90
26326;DHT22;14032;52.510;7.342;2022-12-18T03:05:43;-5.60;99.90
26326;DHT22;14032;52.510;7.342;2022-12-18T03:08:19;-5.60;99.90
26326;DHT22;14032;52.510;7.342;2022-12-18T03:10:51;-5.60;99.90
26326;DHT22;14032;52.510;7.342;2022-12-18T03:13:25;-5.60;99.90
26326;DHT22;14032;52.510;7.342;2022-12-18T03:15:56;-5.60;99.90
26326;DHT22;14032;52.510;7.342;2022-12-18T03:18:26;-5.60;99.90
26326;DHT22;14032;52.510;7.342;2022-12-18T03:20:56;-5.60;99.90
26326;DHT22;14032;52.510;7.342;2022-12-18T03:23:27;-5.50;99.90
26326;DHT22;14032;52.510;7.342;2022-12-18T03:25:57;-5.50;99.90
26326;DHT22;14032;52.510;7.342;2022-12-18T03:28:24;-5.50;99.90
26326;DHT22;14032;52.510;7.342;2022-12-18T03:30:56;-5.50;99.90
26326;DHT22;14032;52.510;7.342;2022-12-18T03:33:25;-5.50;99.90
26326;DHT22;14032;52.510;7.342;2022-12-18T03:35:52;-5.50;99.90
26326;DHT22;14032;52.510;7.342;2022-12-18T03:38:18;-5.60;99.90
26326;DHT22;14032;52.510;7.342;2022-12-18T03:43:29;-5.60;99.90
26326;DHT22;14032;52.510;7.342;2022-12-18T03:46:15;-5.50;99.90
26326;DHT22;14032;52.510;7.342;2022-12-18T03:48:46;-5.60;99.90
26326;DHT22;14032;52.510;7.342;2022-12-18T03:51:38;-5.60;99.90
26326;DHT22;14032;52.510;7.342;2022-12-18T03:54:06;-5.60;99.90
26326;DHT22;14032;52.510;7.342;2022-12-18T03:56:46;-5.60;99.90
26326;DHT22;14032;52.510;7.342;2022-12-18T03:59:15;-5.60;99.90
26326;DHT22;14032;52.510;7.342;2022-12-18T04:01:47;-5.60;99.90
26326;DHT22;14032;52.510;7.342;2022-12-18T04:04:15;-5.60;99.90
26326;DHT22;14032;52.510;7.342;2022-12-18T04:06:42;-5.60;99.90
26326;DHT22;14032;52.510;7.342;2022-12-18T04:09:09;-5.60;99.90
26326;DHT22;14032;52.510;7.342;2022-12-18T04:11:35;-5.60;99.90
26326;DHT22;14032;52.510;7.342;2022-12-18T04:14:00;-5.60;99.90
26326;DHT22;14032;52.510;7.342;2022-12-18T04:16:26;-5.60;99.90
26326;DHT22;14032;52.510;7.342;2022-12-18T04:18:53;-5.60;99.90
26326;DHT22;14032;52.510;7.342;2022-12-18T04:21:19;-5.60;99.90
26326;DHT22;14032;52.510;7.342;2022-12-18T04:23:44;-5.50;99.90
26326;DHT22;14032;52.510;7.342;2022-12-18T04:26:10;-5.60;99.90
26326;DHT22;14032;52.510;7.342;2022-12-18T04:28:35;-5.60;99.90
26326;DHT22;14032;52.510;7.342;2022-12-18T04:31:01;-5.60;99.90
26326;DHT22;14032;52.510;7.342;2022-12-18T04:33:27;-5.60;99.90
26326;DHT22;14032;52.510;7.342;2022-12-18T04:35:52;-5.60;99.90
26326;DHT22;14032;52.510;7.342;2022-12-18T04:38:18;-5.60;99.90
26326;DHT22;14032;52.510;7.342;2022-12-18T04:40:43;-5.60;99.90
26326;DHT22;14032;52.510;7.342;2022-12-18T04:43:09;-5.60;99.90
26326;DHT22;14032;52.510;7.342;2022-12-18T04:45:35;-5.60;99.90
26326;DHT22;14032;52.510;7.342;2022-12-18T04:48:01;-5.60;99.90
26326;DHT22;14032;52.510;7.342;2022-12-18T04:50:28;-5.60;99.90
26326;DHT22;14032;52.510;7.342;2022-12-18T04:52:54;-5.60;99.90
26326;DHT22;14032;52.510;7.342;2022-12-18T04:55:20;-5.60;99.90
26326;DHT22;14032;52.510;7.342;2022-12-18T04:57:45;-5.60;99.90
26326;DHT22;14032;52.510;7.342;2022-12-18T05:00:11;-5.60;99.90
26326;DHT22;14032;52.510;7.342;2022-12-18T05:02:38;-5.60;99.90
26326;DHT22;14032;52.510;7.342;2022-12-18T05:05:03;-5.50;99.90
26326;DHT22;14032;52.510;7.342;2022-12-18T05:07:29;-5.50;99.90
26326;DHT22;14032;52.510;7.342;2022-12-18T05:09:55;-5.50;99.90
26326;DHT22;14032;52.510;7.342;2022-12-18T05:12:20;-5.50;99.90
26326;DHT22;14032;52.510;7.342;2022-12-18T05:14:46;-5.40;99.90
26326;DHT22;14032;52.510;7.342;2022-12-18T05:17:11;-5.40;99.90
26326;DHT22;14032;52.510;7.342;2022-12-18T05:19:37;-5.40;99.90
26326;DHT22;14032;52.510;7.342;2022-12-18T05:22:03;-5.30;99.90
26326;DHT22;14032;52.510;7.342;2022-12-18T05:24:28;-5.30;99.90
26326;DHT22;14032;52.510;7.342;2022-12-18T05:26:54;-5.30;99.90
26326;DHT22;14032;52.510;7.342;2022-12-18T05:29:19;-5.30;99.90
26326;DHT22;14032;52.510;7.342;2022-12-18T05:31:45;-5.30;99.90
26326;DHT22;14032;52.510;7.342;2022-12-18T05:34:10;-5.30;99.90
26326;DHT22;14032;52.510;7.342;2022-12-18T05:36:36;-5.30;99.90
26326;DHT22;14032;52.510;7.342;2022-12-18T05:39:02;-5.20;99.90
26326;DHT22;14032;52.510;7.342;2022-12-18T05:41:28;-5.30;99.90
26326;DHT22;14032;52.510;7.342;2022-12-18T05:43:54;-5.20;99.90
26326;DHT22;14032;52.510;7.342;2022-12-18T05:46:20;-5.20;99.90
26326;DHT22;14032;52.510;7.342;2022-12-18T05:48:46;-5.30;99.90
26326;DHT22;14032;52.510;7.342;2022-12-18T05:51:14;-5.20;99.90
26326;DHT22;14032;52.510;7.342;2022-12-18T05:53:40;-5.20;99.90
26326;DHT22;14032;52.510;7.342;2022-12-18T05:56:09;-5.20;99.90
26326;DHT22;14032;52.510;7.342;2022-12-18T05:58:36;-5.20;99.90
26326;DHT22;14032;52.510;7.342;2022-12-18T06:01:15;-5.20;99.90
26326;DHT22;14032;52.510;7.342;2022-12-18T06:03:41;-5.20;99.90
26326;DHT22;14032;52.510;7.342;2022-12-18T06:08:43;-5.20;99.90
26326;DHT22;14032;52.510;7.342;2022-12-18T06:11:09;-5.20;99.90
26326;DHT22;14032;52.510;7.342;2022-12-18T06:13:35;-5.20;99.90
26326;DHT22;14032;52.510;7.342;2022-12-18T06:16:06;-5.30;99.90
26326;DHT22;14032;52.510;7.342;2022-12-18T06:18:32;-5.30;99.90
26326;DHT22;14032;52.510;7.342;2022-12-18T06:20:59;-5.30;99.90
26326;DHT22;14032;52.510;7.342;2022-12-18T06:23:25;-5.30;99.90
26326;DHT22;14032;52.510;7.342;2022-12-18T06:25:51;-5.30;99.90
26326;DHT22;14032;52.510;7.342;2022-12-18T06:28:16;-5.30;99.90
26326;DHT22;14032;52.510;7.342;2022-12-18T06:30:46;-5.30;99.90
26326;DHT22;14032;52.510;7.342;2022-12-18T06:33:12;-5.30;99.90
26326;DHT22;14032;52.510;7.342;2022-12-18T06:35:37;-5.30;99.90
26326;DHT22;14032;52.510;7.342;2022-12-18T06:38:03;-5.30;99.90
26326;DHT22;14032;52.510;7.342;2022-12-18T06:40:29;-5.30;99.90
26326;DHT22;14032;52.510;7.342;2022-12-18T06:42:54;-5.30;99.90
26326;DHT22;14032;52.510;7.342;2022-12-18T06:45:20;-5.30;99.90
26326;DHT22;14032;52.510;7.342;2022-12-18T06:47:46;-5.30;99.90
26326;DHT22;14032;52.510;7.342;2022-12-18T06:50:12;-5.30;99.90
26326;DHT22;14032;52.510;7.342;2022-12-18T06:52:38;-5.30;99.90
26326;DHT22;14032;52.510;7.342;2022-12-18T06:55:06;-5.30;99.90
26326;DHT22;14032;52.510;7.342;2022-12-18T06:57:32;-5.30;99.90
26326;DHT22;14032;52.510;7.342;2022-12-18T06:59:57;-5.30;99.90
26326;DHT22;14032;52.510;7.342;2022-12-18T07:02:23;-5.30;99.90
26326;DHT22;14032;52.510;7.342;2022-12-18T07:04:48;-5.30;99.90
26326;DHT22;14032;52.510;7.342;2022-12-18T07:07:14;-5.20;99.90
26326;DHT22;14032;52.510;7.342;2022-12-18T07:09:40;-5.20;99.90
26326;DHT22;14032;52.510;7.342;2022-12-18T07:12:05;-5.20;99.90
26326;DHT22;14032;52.510;7.342;2022-12-18T07:14:32;-5.20;99.90
26326;DHT22;14032;52.510;7.342;2022-12-18T07:16:57;-5.20;99.90
26326;DHT22;14032;52.510;7.342;2022-12-18T07:19:23;-5.10;99.90
26326;DHT22;14032;52.510;7.342;2022-12-18T07:21:50;-5.10;99.90
26326;DHT22;14032;52.510;7.342;2022-12-18T07:24:16;-5.10;99.90
26326;DHT22;14032;52.510;7.342;2022-12-18T07:26:41;-5.10;99.90
26326;DHT22;14032;52.510;7.342;2022-12-18T07:29:07;-5.00;99.90
26326;DHT22;14032;52.510;7.342;2022-12-18T07:31:33;-5.00;99.90
26326;DHT22;14032;52.510;7.342;2022-12-18T07:33:58;-5.00;99.90
26326;DHT22;14032;52.510;7.342;2022-12-18T07:36:24;-4.90;99.90
26326;DHT22;14032;52.510;7.342;2022-12-18T07:38:50;-4.90;99.90
26326;DHT22;14032;52.510;7.342;2022-12-18T07:41:17;-4.90;99.90
26326;DHT22;14032;52.510;7.342;2022-12-18T07:43:44;-4.90;99.90
26326;DHT22;14032;52.510;7.342;2022-12-18T07:46:09;-4.90;99.90
26326;DHT22;14032;52.510;7.342;2022-12-18T07:48:35;-4.80;99.90
26326;DHT22;14032;52.510;7.342;2022-12-18T07:51:02;-4.80;99.90
26326;DHT22;14032;52.510;7.342;2022-12-18T07:53:29;-4.80;99.90
26326;DHT22;14032;52.510;7.342;2022-12-18T07:55:59;-4.80;99.90
26326;DHT22;14032;52.510;7.342;2022-12-18T07:58:25;-4.90;99.90
26326;DHT22;14032;52.510;7.342;2022-12-18T08:00:51;-4.80;99.90
26326;DHT22;14032;52.510;7.342;2022-12-18T08:03:18;-4.90;99.90
26326;DHT22;14032;52.510;7.342;2022-12-18T08:05:43;-4.90;99.90
26326;DHT22;14032;52.510;7.342;2022-12-18T08:08:09;-4.90;99.90
26326;DHT22;14032;52.510;7.342;2022-12-18T08:10:35;-4.90;99.90
26326;DHT22;14032;52.510;7.342;2022-12-18T08:13:00;-4.90;99.90
26326;DHT22;14032;52.510;7.342;2022-12-18T08:15:26;-4.90;99.90
26326;DHT22;14032;52.510;7.342;2022-12-18T08:17:51;-4.90;99.90
26326;DHT22;14032;52.510;7.342;2022-12-18T08:20:17;-4.90;99.90
26326;DHT22;14032;52.510;7.342;2022-12-18T08:22:44;-4.90;99.90
26326;DHT22;14032;52.510;7.342;2022-12-18T08:25:10;-5.00;99.90
26326;DHT22;14032;52.510;7.342;2022-12-18T08:27:36;-4.90;99.90
26326;DHT22;14032;52.510;7.342;2022-12-18T08:30:03;-4.90;99.90
26326;DHT22;14032;52.510;7.342;2022-12-18T08:32:29;-4.80;99.90
26326;DHT22;14032;52.510;7.342;2022-12-18T08:34:54;-4.70;99.90
26326;DHT22;14032;52.510;7.342;2022-12-18T08:37:20;-4.60;99.90
26326;DHT22;14032;52.510;7.342;2022-12-18T08:39:47;-4.50;99.90
26326;DHT22;14032;52.510;7.342;2022-12-18T08:42:12;-4.40;99.90
26326;DHT22;14032;52.510;7.342;2022-12-18T08:44:56;-4.40;99.90
26326;DHT22;14032;52.510;7.342;2022-12-18T08:47:22;-4.30;99.90
26326;DHT22;14032;52.510;7.342;2022-12-18T08:49:47;-4.20;99.90
26326;DHT22;14032;52.510;7.342;2022-12-18T08:52:14;-4.10;99.90
26326;DHT22;14032;52.510;7.342;2022-12-18T08:54:40;-4.10;99.90
26326;DHT22;14032;52.510;7.342;2022-12-18T08:57:05;-4.00;99.90
26326;DHT22;14032;52.510;7.342;2022-12-18T08:59:32;-4.00;99.90
26326;DHT22;14032;52.510;7.342;2022-12-18T09:01:57;-4.00;99.90
26326;DHT22;14032;52.510;7.342;2022-12-18T09:04:23;-3.90;99.90
26326;DHT22;14032;52.510;7.342;2022-12-18T09:06:48;-3.90;99.90
26326;DHT22;14032;52.510;7.342;2022-12-18T09:09:14;-3.90;99.90
26326;DHT22;14032;52.510;7.342;2022-12-18T09:11:39;-3.90;99.90
26326;DHT22;14032;52.510;7.342;2022-12-18T09:14:05;-3.90;99.90
26326;DHT22;14032;52.510;7.342;2022-12-18T09:16:31;-3.90;99.90
26326;DHT22;14032;52.510;7.342;2022-12-18T09:18:57;-3.90;99.90
26326;DHT22;14032;52.510;7.342;2022-12-18T09:21:29;-3.80;99.90
26326;DHT22;14032;52.510;7.342;2022-12-18T09:23:55;-3.80;99.90
26326;DHT22;14032;52.510;7.342;2022-12-18T09:26:23;-3.80;99.90
26326;DHT22;14032;52.510;7.342;2022-12-18T09:28:49;-3.70;99.90
26326;DHT22;14032;52.510;7.342;2022-12-18T09:31:16;-3.70;99.90
26326;DHT22;14032;52.510;7.342;2022-12-18T09:33:42;-3.60;99.90
26326;DHT22;14032;52.510;7.342;2022-12-18T09:36:09;-3.60;99.90
26326;DHT22;14032;52.510;7.342;2022-12-18T09:38:37;-3.60;99.90
26326;DHT22;14032;52.510;7.342;2022-12-18T09:41:33;-3.50;99.90
26326;DHT22;14032;52.510;7.342;2022-12-18T09:46:47;-3.50;99.90
26326;DHT22;14032;52.510;7.342;2022-12-18T09:49:19;-3.40;99.90
26326;DHT22;14032;52.510;7.342;2022-12-18T09:51:52;-3.40;99.90
26326;DHT22;14032;52.510;7.342;2022-12-18T09:54:26;-3.40;99.90
26326;DHT22;14032;52.510;7.342;2022-12-18T09:56:55;-3.30;99.90
26326;DHT22;14032;52.510;7.342;2022-12-18T09:59:29;-3.30;99.90
26326;DHT22;14032;52.510;7.342;2022-12-18T10:01:56;-3.20;99.90
26326;DHT22;14032;52.510;7.342;2022-12-18T10:04:22;-3.20;99.90
26326;DHT22;14032;52.510;7.342;2022-12-18T10:06:57;-3.10;99.90
26326;DHT22;14032;52.510;7.342;2022-12-18T10:09:37;-3.10;99.90
26326;DHT22;14032;52.510;7.342;2022-12-18T10:12:22;-3.10;99.90
26326;DHT22;14032;52.510;7.342;2022-12-18T10:15:07;-3.00;99.90
26326;DHT22;14032;52.510;7.342;2022-12-18T10:17:51;-2.90;99.90
26326;DHT22;14032;52.510;7.342;2022-12-18T10:20:44;-2.90;99.90
26326;DHT22;14032;52.510;7.342;2022-12-18T10:23:37;-2.80;99.90
26326;DHT22;14032;52.510;7.342;2022-12-18T10:26:10;-2.80;99.90
26326;DHT22;14032;52.510;7.342;2022-12-18T10:28:39;-2.80;99.90
26326;DHT22;14032;52.510;7.342;2022-12-18T10:31:21;-2.70;99.90
26326;DHT22;14032;52.510;7.342;2022-12-18T10:33:47;-2.70;99.90
26326;DHT22;14032;52.510;7.342;2022-12-18T10:36:13;-2.70;99.90
26326;DHT22;14032;52.510;7.342;2022-12-18T10:38:39;-2.60;99.90
26326;DHT22;14032;52.510;7.342;2022-12-18T10:43:42;-2.60;99.90
26326;DHT22;14032;52.510;7.342;2022-12-18T10:51:06;-2.50;99.90
26326;DHT22;14032;52.510;7.342;2022-12-18T10:53:33;-2.50;99.90
26326;DHT22;14032;52.510;7.342;2022-12-18T10:56:00;-2.50;99.90
26326;DHT22;14032;52.510;7.342;2022-12-18T10:58:37;-2.50;99.90
26326;DHT22;14032;52.510;7.342;2022-12-18T11:03:46;-2.40;99.90
26326;DHT22;14032;52.510;7.342;2022-12-18T11:06:24;-2.40;99.90
26326;DHT22;14032;52.510;7.342;2022-12-18T11:09:19;-2.40;99.90
26326;DHT22;14032;52.510;7.342;2022-12-18T11:11:49;-2.40;99.90
26326;DHT22;14032;52.510;7.342;2022-12-18T11:14:25;-2.30;99.90
26326;DHT22;14032;52.510;7.342;2022-12-18T11:16:52;-2.30;99.90
26326;DHT22;14032;52.510;7.342;2022-12-18T11:19:35;-2.20;99.90
26326;DHT22;14032;52.510;7.342;2022-12-18T11:22:27;-2.20;99.90
26326;DHT22;14032;52.510;7.342;2022-12-18T11:25:05;-2.20;99.90
26326;DHT22;14032;52.510;7.342;2022-12-18T11:27:32;-2.10;99.90
26326;DHT22;14032;52.510;7.342;2022-12-18T11:35:51;-2.10;99.90
26326;DHT22;14032;52.510;7.342;2022-12-18T11:38:33;-2.10;99.90
26326;DHT22;14032;52.510;7.342;2022-12-18T11:43:53;-2.00;99.90
26326;DHT22;14032;52.510;7.342;2022-12-18T11:46:36;-1.90;99.90
26326;DHT22;14032;52.510;7.342;2022-12-18T11:49:18;-1.90;99.90
26326;DHT22;14032;52.510;7.342;2022-12-18T11:51:59;-1.90;99.90
26326;DHT22;14032;52.510;7.342;2022-12-18T11:54:25;-1.90;99.90
26326;DHT22;14032;52.510;7.342;2022-12-18T12:05:35;-1.80;99.90
26326;DHT22;14032;52.510;7.342;2022-12-18T12:10:42;-1.80;99.90
26326;DHT22;14032;52.510;7.342;2022-12-18T12:16:19;-1.80;99.90
26326;DHT22;14032;52.510;7.342;2022-12-18T12:21:55;-1.80;99.90
26326;DHT22;14032;52.510;7.342;2022-12-18T12:33:01;-1.80;99.90
26326;DHT22;14032;52.510;7.342;2022-12-18T12:35:52;-1.80;99.90
26326;DHT22;14032;52.510;7.342;2022-12-18T12:38:40;-1.80;99.90
26326;DHT22;14032;52.510;7.342;2022-12-18T12:41:14;-1.80;99.90
26326;DHT22;14032;52.510;7.342;2022-12-18T12:44:04;-1.80;99.90
26326;DHT22;14032;52.510;7.342;2022-12-18T12:46:34;-1.80;99.90
26326;DHT22;14032;52.510;7.342;2022-12-18T12:49:02;-1.80;99.90
26326;DHT22;14032;52.510;7.342;2022-12-18T12:51:37;-1.80;99.90
26326;DHT22;14032;52.510;7.342;2022-12-18T12:54:05;-1.80;99.90
26326;DHT22;14032;52.510;7.342;2022-12-18T12:56:52;-1.90;99.90
26326;DHT22;14032;52.510;7.342;2022-12-18T12:59:38;-1.80;99.90
26326;DHT22;14032;52.510;7.342;2022-12-18T13:04:57;-1.80;99.90
26326;DHT22;14032;52.510;7.342;2022-12-18T13:15:29;-1.70;99.90
26326;DHT22;14032;52.510;7.342;2022-12-18T13:20:35;-1.70;99.90
26326;DHT22;14032;52.510;7.342;2022-12-18T13:26:38;-1.60;99.90
26326;DHT22;14032;52.510;7.342;2022-12-18T13:31:12;-1.60;99.90
26326;DHT22;14032;52.510;7.342;2022-12-18T13:33:41;-1.60;99.90
26326;DHT22;14032;52.510;7.342;2022-12-18T13:38:42;-1.60;99.90
26326;DHT22;14032;52.510;7.342;2022-12-18T13:41:21;-1.70;99.90
26326;DHT22;14032;52.510;7.342;2022-12-18T13:43:53;-1.60;99.90
26326;DHT22;14032;52.510;7.342;2022-12-18T13:51:24;-1.60;99.90
26326;DHT22;14032;52.510;7.342;2022-12-18T13:56:21;-1.70;99.90
26326;DHT22;14032;52.510;7.342;2022-12-18T13:59:37;-1.60;99.90
26326;DHT22;14032;52.510;7.342;2022-12-18T14:01:56;-1.70;99.90
26326;DHT22;14032;52.510;7.342;2022-12-18T14:04:25;-1.70;99.90
26326;DHT22;14032;52.510;7.342;2022-12-18T14:09:43;-1.70;99.90
26326;DHT22;14032;52.510;7.342;2022-12-18T14:12:19;-1.70;99.90
26326;DHT22;14032;52.510;7.342;2022-12-18T14:17:46;-1.70;99.90
26326;DHT22;14032;52.510;7.342;2022-12-18T14:20:14;-1.70;99.90
26326;DHT22;14032;52.510;7.342;2022-12-18T14:22:46;-1.70;99.90
26326;DHT22;14032;52.510;7.342;2022-12-18T14:27:42;-1.70;99.90
26326;DHT22;14032;52.510;7.342;2022-12-18T14:30:24;-1.80;99.90
26326;DHT22;14032;52.510;7.342;2022-12-18T14:33:09;-1.70;99.90
26326;DHT22;14032;52.510;7.342;2022-12-18T14:35:59;-1.80;99.90
26326;DHT22;14032;52.510;7.342;2022-12-18T14:38:35;-1.70;99.90
26326;DHT22;14032;52.510;7.342;2022-12-18T14:41:05;-1.80;99.90
26326;DHT22;14032;52.510;7.342;2022-12-18T14:43:35;-1.80;99.90
26326;DHT22;14032;52.510;7.342;2022-12-18T14:46:02;-1.80;99.90
26326;DHT22;14032;52.510;7.342;2022-12-18T14:48:39;-1.80;99.90
26326;DHT22;14032;52.510;7.342;2022-12-18T14:53:44;-1.80;99.90
26326;DHT22;14032;52.510;7.342;2022-12-18T14:58:51;-1.90;99.90
26326;DHT22;14032;52.510;7.342;2022-12-18T15:01:20;-1.80;99.90
26326;DHT22;14032;52.510;7.342;2022-12-18T15:03:46;-1.80;99.90
26326;DHT22;14032;52.510;7.342;2022-12-18T15:06:26;-1.80;99.90
26326;DHT22;14032;52.510;7.342;2022-12-18T15:08:52;-1.80;99.90
26326;DHT22;14032;52.510;7.342;2022-12-18T15:11:27;-1.80;99.90
26326;DHT22;14032;52.510;7.342;2022-12-18T15:13:53;-1.80;99.90
26326;DHT22;14032;52.510;7.342;2022-12-18T15:16:19;-1.80;99.90
26326;DHT22;14032;52.510;7.342;2022-12-18T15:18:45;-1.80;99.90
26326;DHT22;14032;52.510;7.342;2022-12-18T15:21:19;-1.80;99.90
26326;DHT22;14032;52.510;7.342;2022-12-18T15:23:52;-1.80;99.90
26326;DHT22;14032;52.510;7.342;2022-12-18T15:26:20;-1.80;99.90
26326;DHT22;14032;52.510;7.342;2022-12-18T15:28:54;-1.70;99.90
26326;DHT22;14032;52.510;7.342;2022-12-18T15:36:18;-1.70;99.90
26326;DHT22;14032;52.510;7.342;2022-12-18T15:38:52;-1.70;99.90
26326;DHT22;14032;52.510;7.342;2022-12-18T15:41:20;-1.70;99.90
26326;DHT22;14032;52.510;7.342;2022-12-18T15:43:48;-1.70;99.90
26326;DHT22;14032;52.510;7.342;2022-12-18T15:46:15;-1.70;99.90
26326;DHT22;14032;52.510;7.342;2022-12-18T15:48:49;-1.70;99.90
26326;DHT22;14032;52.510;7.342;2022-12-18T15:53:43;-1.70;99.90
26326;DHT22;14032;52.510;7.342;2022-12-18T15:56:11;-1.70;99.90
26326;DHT22;14032;52.510;7.342;2022-12-18T15:58:55;-1.60;99.90
26326;DHT22;14032;52.510;7.342;2022-12-18T16:01:22;-1.70;99.90
26326;DHT22;14032;52.510;7.342;2022-12-18T16:03:48;-1.60;99.90
26326;DHT22;14032;52.510;7.342;2022-12-18T16:06:14;-1.60;99.90
26326;DHT22;14032;52.510;7.342;2022-12-18T16:08:40;-1.70;99.90
26326;DHT22;14032;52.510;7.342;2022-12-18T16:11:08;-1.70;99.90
26326;DHT22;14032;52.510;7.342;2022-12-18T16:13:34;-1.70;99.90
26326;DHT22;14032;52.510;7.342;2022-12-18T16:15:59;-1.70;99.90
26326;DHT22;14032;52.510;7.342;2022-12-18T16:18:25;-1.70;99.90
26326;DHT22;14032;52.510;7.342;2022-12-18T16:20:51;-1.60;99.90
26326;DHT22;14032;52.510;7.342;2022-12-18T16:23:16;-1.60;99.90
26326;DHT22;14032;52.510;7.342;2022-12-18T16:25:42;-1.60;99.90
26326;DHT22;14032;52.510;7.342;2022-12-18T16:28:07;-1.60;99.90
26326;DHT22;14032;52.510;7.342;2022-12-18T16:30:33;-1.50;99.90
26326;DHT22;14032;52.510;7.342;2022-12-18T16:32:59;-1.50;99.90
26326;DHT22;14032;52.510;7.342;2022-12-18T16:35:25;-1.50;99.90
26326;DHT22;14032;52.510;7.342;2022-12-18T16:37:51;-1.50;99.90
26326;DHT22;14032;52.510;7.342;2022-12-18T16:40:19;-1.50;99.90
26326;DHT22;14032;52.510;7.342;2022-12-18T16:42:47;-1.40;99.90
26326;DHT22;14032;52.510;7.342;2022-12-18T16:45:16;-1.40;99.90
26326;DHT22;14032;52.510;7.342;2022-12-18T16:47:42;-1.40;99.90
26326;DHT22;14032;52.510;7.342;2022-12-18T16:50:08;-1.40;99.90
26326;DHT22;14032;52.510;7.342;2022-12-18T16:52:35;-1.40;99.90
26326;DHT22;14032;52.510;7.342;2022-12-18T16:55:01;-1.40;99.90
26326;DHT22;14032;52.510;7.342;2022-12-18T16:57:27;-1.40;99.90
26326;DHT22;14032;52.510;7.342;2022-12-18T16:59:53;-1.40;99.90
26326;DHT22;14032;52.510;7.342;2022-12-18T17:02:24;-1.40;99.90
26326;DHT22;14032;52.510;7.342;2022-12-18T17:04:53;-1.30;99.90
26326;DHT22;14032;52.510;7.342;2022-12-18T17:07:19;-1.30;99.90
26326;DHT22;14032;52.510;7.342;2022-12-18T17:09:44;-1.30;99.90
26326;DHT22;14032;52.510;7.342;2022-12-18T17:12:10;-1.40;99.90
26326;DHT22;14032;52.510;7.342;2022-12-18T17:14:36;-1.30;99.90
26326;DHT22;14032;52.510;7.342;2022-12-18T17:17:02;-1.40;99.90
26326;DHT22;14032;52.510;7.342;2022-12-18T17:19:28;-1.40;99.90
26326;DHT22;14032;52.510;7.342;2022-12-18T17:21:54;-1.40;99.90
26326;DHT22;14032;52.510;7.342;2022-12-18T17:24:20;-1.40;99.90
26326;DHT22;14032;52.510;7.342;2022-12-18T17:26:46;-1.40;99.90
26326;DHT22;14032;52.510;7.342;2022-12-18T17:29:14;-1.30;99.90
26326;DHT22;14032;52.510;7.342;2022-12-18T17:31:42;-1.30;99.90
26326;DHT22;14032;52.510;7.342;2022-12-18T17:34:10;-1.30;99.90
26326;DHT22;14032;52.510;7.342;2022-12-18T17:36:36;-1.30;99.90
26326;DHT22;14032;52.510;7.342;2022-12-18T17:39:03;-1.40;99.90
26326;DHT22;14032;52.510;7.342;2022-12-18T17:41:30;-1.30;99.90
26326;DHT22;14032;52.510;7.342;2022-12-18T17:44:01;-1.30;99.90
26326;DHT22;14032;52.510;7.342;2022-12-18T17:46:29;-1.40;99.90
26326;DHT22;14032;52.510;7.342;2022-12-18T17:48:56;-1.40;99.90